createdAt,value
2019-02-25T00:01:28.294Z,1.99
2019-02-25T00:03:57.962Z,1.97
2019-02-25T00:06:27.907Z,1.96
2019-02-25T00:08:58.642Z,1.98
2019-02-25T00:11:28.858Z,2.00
2019-02-25T00:13:59.011Z,2.00
2019-02-25T00:16:29.314Z,1.98
2019-02-25T00:19:00.398Z,1.95
2019-02-25T00:21:35.289Z,2.03
2019-02-25T00:24:05.504Z,2.02
2019-02-25T00:26:39.790Z,1.96
2019-02-25T00:29:09.951Z,1.96
2019-02-25T00:31:40.186Z,1.97
2019-02-25T00:34:13.582Z,1.99
2019-02-25T00:36:44.103Z,1.98
2019-02-25T00:39:15.815Z,2.01
2019-02-25T00:41:45.530Z,2.06
2019-02-25T00:44:15.649Z,2.07
2019-02-25T00:46:49.858Z,2.00
2019-02-25T00:49:22.718Z,1.96
2019-02-25T00:51:53.473Z,1.87
2019-02-25T00:54:23.912Z,1.76
2019-02-25T00:56:54.232Z,1.72
2019-02-25T00:59:24.279Z,1.66
2019-02-25T01:01:54.497Z,1.68
2019-02-25T01:04:24.600Z,1.71
2019-02-25T01:06:55.313Z,1.74
2019-02-25T01:09:25.263Z,1.74
2019-02-25T01:11:55.188Z,1.79
2019-02-25T01:14:25.381Z,1.80
2019-02-25T01:16:55.635Z,1.81
2019-02-25T01:19:26.568Z,1.84
2019-02-25T01:21:56.793Z,1.86
2019-02-25T01:24:26.893Z,1.86
2019-02-25T01:26:57.134Z,1.85
2019-02-25T01:29:27.458Z,1.85
2019-02-25T01:31:57.742Z,1.84
2019-02-25T01:34:27.703Z,1.85
2019-02-25T01:36:57.828Z,1.90
2019-02-25T01:39:27.849Z,1.89
2019-02-25T01:41:58.049Z,1.94
2019-02-25T01:44:28.121Z,1.97
2019-02-25T01:46:57.964Z,1.96
2019-02-25T01:49:28.077Z,1.96
2019-02-25T01:51:58.835Z,1.94
2019-02-25T01:54:29.073Z,2.05
2019-02-25T01:56:59.249Z,2.05
2019-02-25T01:59:29.305Z,1.99
2019-02-25T02:01:59.604Z,1.99
2019-02-25T02:04:30.365Z,1.94
2019-02-25T02:07:00.459Z,1.91
2019-02-25T02:09:30.660Z,1.95
2019-02-25T02:12:00.736Z,1.92
2019-02-25T02:14:30.784Z,1.86
2019-02-25T02:17:01.077Z,1.87
2019-02-25T02:19:31.137Z,1.89
2019-02-25T02:22:01.370Z,1.91
2019-02-25T02:24:31.573Z,1.95
2019-02-25T02:27:01.776Z,1.94
2019-02-25T02:29:31.848Z,1.99
2019-02-25T02:32:02.611Z,1.98
2019-02-25T02:34:32.883Z,1.94
2019-02-25T02:37:02.941Z,1.98
2019-02-25T02:39:33.201Z,2.01
2019-02-25T02:42:31.569Z,2.01
2019-02-25T02:45:25.702Z,2.01
2019-02-25T02:48:01.517Z,1.99
2019-02-25T02:50:31.991Z,1.98
2019-02-25T02:53:02.031Z,1.95
2019-02-25T02:55:32.296Z,2.02
2019-02-25T02:58:02.532Z,2.04
2019-02-25T03:00:33.116Z,2.02
2019-02-25T03:03:04.037Z,2.11
2019-02-25T03:05:34.385Z,2.17
2019-02-25T03:08:05.193Z,2.19
2019-02-25T03:10:35.262Z,2.18
2019-02-25T03:13:06.010Z,2.23
2019-02-25T03:15:35.999Z,2.26
2019-02-25T03:18:06.099Z,2.28
2019-02-25T03:20:36.472Z,2.29
2019-02-25T03:23:06.581Z,2.27
2019-02-25T03:25:37.079Z,2.28
2019-02-25T03:28:07.278Z,2.29
2019-02-25T03:30:37.340Z,2.33
2019-02-25T03:33:07.780Z,2.31
2019-02-25T03:35:37.820Z,2.31
2019-02-25T03:38:08.084Z,2.35
2019-02-25T03:40:38.035Z,2.36
2019-02-25T03:43:08.420Z,2.38
2019-02-25T03:45:38.537Z,2.37
2019-02-25T03:48:09.446Z,2.41
2019-02-25T03:50:39.392Z,2.46
2019-02-25T03:53:09.627Z,2.48
2019-02-25T03:55:39.943Z,2.47
2019-02-25T03:58:10.165Z,2.48
2019-02-25T04:00:40.295Z,2.50
2019-02-25T04:03:10.446Z,2.50
2019-02-25T04:05:40.639Z,2.55
2019-02-25T04:08:10.931Z,2.53
2019-02-25T04:10:41.063Z,2.50
2019-02-25T04:13:11.324Z,2.57
2019-02-25T04:15:43.695Z,2.55
2019-02-25T04:18:13.981Z,2.51
2019-02-25T04:20:44.162Z,2.55
2019-02-25T04:23:14.399Z,2.53
2019-02-25T04:25:44.805Z,2.48
2019-02-25T04:28:15.227Z,2.48
2019-02-25T04:30:45.319Z,2.48
2019-02-25T04:33:15.602Z,2.52
2019-02-25T04:35:45.855Z,2.56
2019-02-25T04:38:16.082Z,2.57
2019-02-25T04:40:46.628Z,2.63
2019-02-25T04:43:16.990Z,2.67
2019-02-25T04:45:47.541Z,2.79
2019-02-25T04:48:17.912Z,2.79
2019-02-25T04:50:48.030Z,2.79
2019-02-25T04:53:18.377Z,2.77
2019-02-25T04:55:48.594Z,2.78
2019-02-25T04:58:19.013Z,2.86
2019-02-25T05:00:49.806Z,2.86
2019-02-25T05:03:20.344Z,2.90
2019-02-25T05:05:50.400Z,2.95
2019-02-25T05:08:20.651Z,2.96
2019-02-25T05:10:51.537Z,2.91
2019-02-25T05:13:23.727Z,3.00
2019-02-25T05:15:54.384Z,3.04
2019-02-25T05:18:24.541Z,3.08
2019-02-25T05:20:54.910Z,3.08
2019-02-25T05:23:25.143Z,3.07
2019-02-25T05:25:56.030Z,3.07
2019-02-25T05:28:27.028Z,3.04
2019-02-25T05:30:57.473Z,3.09
2019-02-25T05:33:31.183Z,3.06
2019-02-25T05:36:01.719Z,3.13
2019-02-25T05:38:32.465Z,3.12
2019-02-25T05:41:02.577Z,3.21
2019-02-25T05:43:33.158Z,3.21
2019-02-25T05:46:03.509Z,3.32
2019-02-25T05:48:33.635Z,3.41
2019-02-25T05:51:04.253Z,3.51
2019-02-25T05:53:34.462Z,3.50
2019-02-25T05:56:05.035Z,3.65
2019-02-25T05:58:35.347Z,3.71
2019-02-25T06:01:05.682Z,3.69
2019-02-25T06:03:36.393Z,3.62
2019-02-25T06:06:06.622Z,3.69
2019-02-25T06:08:37.282Z,3.69
2019-02-25T06:11:07.383Z,3.72
2019-02-25T06:13:37.605Z,3.82
2019-02-25T06:16:07.703Z,3.86
2019-02-25T06:18:37.824Z,3.83
2019-02-25T06:21:08.118Z,3.85
2019-02-25T06:23:38.562Z,3.98
2019-02-25T06:26:08.812Z,4.13
2019-02-25T06:28:38.957Z,4.21
2019-02-25T06:31:09.227Z,4.26
2019-02-25T06:33:39.885Z,4.20
2019-02-25T06:36:10.057Z,4.18
2019-02-25T06:38:40.023Z,4.15
2019-02-25T06:41:09.980Z,4.15
2019-02-25T06:43:40.508Z,4.15
2019-02-25T06:46:11.271Z,4.04
2019-02-25T06:48:41.279Z,4.07
2019-02-25T06:51:11.908Z,4.10
2019-02-25T06:53:42.216Z,4.25
2019-02-25T06:56:12.766Z,4.27
2019-02-25T06:58:42.795Z,4.23
2019-02-25T07:01:13.110Z,4.13
2019-02-25T07:03:45.186Z,4.20
2019-02-25T07:06:22.990Z,4.32
2019-02-25T07:09:25.491Z,4.49
2019-02-25T07:12:12.119Z,4.68
2019-02-25T07:14:51.195Z,4.78
2019-02-25T07:17:50.016Z,4.80
2019-02-25T07:20:28.907Z,4.77
2019-02-25T07:23:18.896Z,4.79
2019-02-25T07:26:07.433Z,4.79
2019-02-25T07:28:59.908Z,4.72
2019-02-25T07:31:56.127Z,4.73
2019-02-25T07:35:01.105Z,4.70
2019-02-25T07:37:55.112Z,4.70
2019-02-25T07:40:43.083Z,4.90
2019-02-25T07:43:33.836Z,5.05
2019-02-25T07:46:29.119Z,5.12
2019-02-25T07:49:09.300Z,5.10
2019-02-25T07:51:59.563Z,5.13
2019-02-25T07:54:47.313Z,5.07
2019-02-25T08:00:14.177Z,5.15
2019-02-25T08:02:59.370Z,5.14
2019-02-25T08:06:01.612Z,5.14
2019-02-25T08:08:42.749Z,5.21
2019-02-25T08:11:30.975Z,5.22
2019-02-25T08:14:15.526Z,5.21
2019-02-25T08:17:14.020Z,5.16
2019-02-25T08:19:56.998Z,5.24
2019-02-25T08:22:44.956Z,5.09
2019-02-25T08:25:36.447Z,5.09
2019-02-25T08:28:25.001Z,5.06
2019-02-25T08:31:24.977Z,5.02
2019-02-25T08:34:18.758Z,4.98
2019-02-25T08:38:05.882Z,4.95
2019-02-25T08:41:18.287Z,4.81
2019-02-25T08:44:07.379Z,5.02
2019-02-25T08:47:09.417Z,5.06
2019-02-25T08:49:44.140Z,5.23
2019-02-25T08:52:14.536Z,5.23
2019-02-25T08:54:45.079Z,5.28
2019-02-25T08:57:15.558Z,5.38
2019-02-25T08:59:46.916Z,5.44
2019-02-25T09:02:17.381Z,5.46
2019-02-25T09:04:49.232Z,5.29
2019-02-25T09:07:19.854Z,5.35
2019-02-25T09:09:50.704Z,5.48
2019-02-25T09:12:20.889Z,5.46
2019-02-25T09:14:51.149Z,5.60
2019-02-25T09:17:22.110Z,5.74
2019-02-25T09:19:52.307Z,5.85
2019-02-25T09:22:22.519Z,5.78
2019-02-25T09:24:52.905Z,5.85
2019-02-25T09:27:23.005Z,5.79
2019-02-25T09:29:53.365Z,5.66
2019-02-25T09:32:23.896Z,5.55
2019-02-25T09:34:54.054Z,5.59
2019-02-25T09:37:24.309Z,5.55
2019-02-25T09:39:54.496Z,5.50
2019-02-25T09:42:24.723Z,5.40
2019-02-25T09:44:54.930Z,5.43
2019-02-25T09:47:25.156Z,5.32
2019-02-25T09:49:55.430Z,5.40
2019-02-25T09:52:25.539Z,5.39
2019-02-25T09:54:55.696Z,5.66
2019-02-25T09:57:26.267Z,5.91
2019-02-25T09:59:56.778Z,5.89
2019-02-25T10:02:27.094Z,5.85
2019-02-25T10:04:57.509Z,5.86
2019-02-25T10:07:27.670Z,5.74
2019-02-25T10:09:57.966Z,5.85
2019-02-25T10:12:28.520Z,5.67
2019-02-25T10:14:59.095Z,5.65
2019-02-25T10:17:30.066Z,5.65
2019-02-25T10:20:00.458Z,5.72
2019-02-25T10:22:32.739Z,5.46
2019-02-25T10:25:03.212Z,5.41
2019-02-25T10:27:33.401Z,5.49
2019-02-25T10:30:04.832Z,5.41
2019-02-25T10:32:35.084Z,5.29
2019-02-25T10:35:06.957Z,5.08
2019-02-25T10:37:38.658Z,5.04
2019-02-25T10:40:10.410Z,4.96
2019-02-25T10:42:40.679Z,5.01
2019-02-25T10:45:13.629Z,5.02
2019-02-25T10:47:44.334Z,5.34
2019-02-25T10:50:16.383Z,5.50
2019-02-25T10:52:49.530Z,5.83
2019-02-25T10:55:32.364Z,5.91
2019-02-25T10:58:03.798Z,5.89
2019-02-25T11:00:35.290Z,5.90
2019-02-25T11:03:06.901Z,5.90
2019-02-25T11:05:37.436Z,6.13
2019-02-25T11:08:12.037Z,5.94
2019-02-25T11:10:50.857Z,6.00
2019-02-25T11:13:22.617Z,5.72
2019-02-25T11:15:52.904Z,5.66
2019-02-25T11:18:24.551Z,5.54
2019-02-25T11:20:55.721Z,5.55
2019-02-25T11:23:26.063Z,5.60
2019-02-25T11:25:57.906Z,5.73
2019-02-25T11:28:28.657Z,5.51
2019-02-25T11:30:58.655Z,5.66
2019-02-25T11:33:30.271Z,5.84
2019-02-25T11:36:01.370Z,5.85
2019-02-25T11:38:35.468Z,5.80
2019-02-25T11:41:04.801Z,5.97
2019-02-25T11:43:35.940Z,5.93
2019-02-25T11:46:06.123Z,5.92
2019-02-25T11:48:36.345Z,5.67
2019-02-25T11:51:07.361Z,5.74
2019-02-25T11:53:37.921Z,5.73
2019-02-25T11:56:07.891Z,5.84
2019-02-25T11:58:38.315Z,5.74
2019-02-25T12:01:08.728Z,5.59
2019-02-25T12:03:39.257Z,5.38
2019-02-25T12:06:09.579Z,5.38
2019-02-25T12:08:40.633Z,5.36
2019-02-25T12:11:10.827Z,5.23
2019-02-25T12:13:41.000Z,5.24
2019-02-25T12:16:11.378Z,5.36
2019-02-25T12:18:41.557Z,5.37
2019-02-25T12:21:11.582Z,5.35
2019-02-25T12:23:41.824Z,5.37
2019-02-25T12:26:12.479Z,5.33
2019-02-25T12:28:42.717Z,5.32
2019-02-25T12:31:13.231Z,5.26
2019-02-25T12:33:44.180Z,5.25
2019-02-25T12:36:14.750Z,5.14
2019-02-25T12:38:45.223Z,5.19
2019-02-25T12:41:16.121Z,5.08
2019-02-25T12:43:46.288Z,5.10
2019-02-25T12:46:16.362Z,5.13
2019-02-25T12:48:46.753Z,4.98
2019-02-25T12:51:16.996Z,5.05
2019-02-25T12:53:48.163Z,5.07
2019-02-25T12:56:18.558Z,4.97
2019-02-25T12:58:52.237Z,4.83
2019-02-25T13:01:23.328Z,4.76
2019-02-25T13:03:53.929Z,4.45
2019-02-25T13:06:24.322Z,4.43
2019-02-25T13:08:55.119Z,4.34
2019-02-25T13:11:25.574Z,4.46
2019-02-25T13:13:56.086Z,4.52
2019-02-25T13:16:26.527Z,4.44
2019-02-25T13:18:57.021Z,4.42
2019-02-25T13:21:28.137Z,4.46
2019-02-25T13:23:59.441Z,4.55
2019-02-25T13:26:32.251Z,4.69
2019-02-25T13:29:04.416Z,4.76
2019-02-25T13:31:35.660Z,4.72
2019-02-25T13:34:06.267Z,4.70
2019-02-25T13:36:37.173Z,4.64
2019-02-25T13:39:08.502Z,4.61
2019-02-25T13:41:39.512Z,4.60
2019-02-25T13:44:09.868Z,4.50
2019-02-25T13:46:40.539Z,4.50
2019-02-25T13:49:11.774Z,4.40
2019-02-25T13:51:41.824Z,4.27
2019-02-25T13:54:12.664Z,4.33
2019-02-25T13:56:43.256Z,4.30
2019-02-25T13:59:13.886Z,4.35
2019-02-25T14:01:44.592Z,4.29
2019-02-25T14:04:15.199Z,4.32
2019-02-25T14:06:45.660Z,4.33
2019-02-25T14:09:16.387Z,4.42
2019-02-25T14:11:48.767Z,4.48
2019-02-25T14:14:20.752Z,4.41
2019-02-25T14:16:51.811Z,4.41
2019-02-25T14:19:22.186Z,4.32
2019-02-25T14:21:52.611Z,4.34
2019-02-25T14:24:23.433Z,4.29
2019-02-25T14:26:54.619Z,4.29
2019-02-25T14:29:26.437Z,4.24
2019-02-25T14:31:57.203Z,4.22
2019-02-25T14:34:27.825Z,4.15
2019-02-25T14:36:59.716Z,4.07
2019-02-25T14:39:32.727Z,4.11
2019-02-25T14:42:04.395Z,4.04
2019-02-25T14:44:37.631Z,4.02
2019-02-25T14:47:19.538Z,3.94
2019-02-25T14:49:41.066Z,3.95
2019-02-25T14:52:12.314Z,3.98
2019-02-25T14:54:42.685Z,3.95
2019-02-25T14:57:13.394Z,3.93
2019-02-25T14:59:45.430Z,3.94
2019-02-25T15:02:16.414Z,3.95
2019-02-25T15:04:46.703Z,3.93
2019-02-25T15:07:17.017Z,3.90
2019-02-25T15:09:48.134Z,3.77
2019-02-25T15:12:20.622Z,3.71
2019-02-25T15:14:51.189Z,3.59
2019-02-25T15:17:21.711Z,3.65
2019-02-25T15:19:52.267Z,3.68
2019-02-25T15:22:23.170Z,3.70
2019-02-25T15:24:54.642Z,3.69
2019-02-25T15:27:25.835Z,3.60
2019-02-25T15:29:56.359Z,3.57
2019-02-25T15:32:26.913Z,3.63
2019-02-25T15:34:57.340Z,3.62
2019-02-25T15:37:27.884Z,3.64
2019-02-25T15:39:57.844Z,3.59
2019-02-25T15:42:29.771Z,3.62
2019-02-25T15:45:00.429Z,3.61
2019-02-25T15:47:31.457Z,3.65
2019-02-25T15:50:03.985Z,3.69
2019-02-25T15:52:39.990Z,3.73
2019-02-25T15:55:08.577Z,3.70
2019-02-25T15:57:40.097Z,3.67
2019-02-25T16:00:13.969Z,3.69
2019-02-25T16:02:44.568Z,3.74
2019-02-25T16:05:15.269Z,3.80
2019-02-25T16:07:45.806Z,3.88
2019-02-25T16:10:16.584Z,3.90
2019-02-25T16:12:47.474Z,3.87
2019-02-25T16:15:18.151Z,3.91
2019-02-25T16:17:49.606Z,3.86
2019-02-25T16:20:21.168Z,3.67
2019-02-25T16:22:51.962Z,3.65
2019-02-25T16:25:23.063Z,3.48
2019-02-25T16:27:55.514Z,3.48
2019-02-25T16:30:28.854Z,3.43
2019-02-25T16:33:04.314Z,3.47
2019-02-25T16:35:34.851Z,3.50
2019-02-25T16:38:07.318Z,3.56
2019-02-25T16:40:40.078Z,3.56
2019-02-25T16:43:12.755Z,3.48
2019-02-25T16:45:45.295Z,3.49
2019-02-25T16:48:17.236Z,3.57
2019-02-25T16:50:47.993Z,3.56
2019-02-25T16:53:20.219Z,3.47
2019-02-25T16:55:51.553Z,3.44
2019-02-25T16:58:21.995Z,3.41
2019-02-25T17:00:55.992Z,3.42
2019-02-25T17:03:25.048Z,3.40
2019-02-25T17:05:55.455Z,3.36
2019-02-25T17:08:28.200Z,3.45
2019-02-25T17:11:00.019Z,3.42
2019-02-25T17:13:33.040Z,3.40
2019-02-25T17:16:04.018Z,3.41
2019-02-25T17:18:34.730Z,3.44
2019-02-25T17:21:07.675Z,3.51
2019-02-25T17:23:41.419Z,3.41
2019-02-25T17:26:17.217Z,3.51
2019-02-25T17:28:47.499Z,3.60
2019-02-25T17:31:26.207Z,3.72
2019-02-25T17:33:57.911Z,3.66
2019-02-25T17:36:36.496Z,3.68
2019-02-25T17:39:08.756Z,3.62
2019-02-25T17:41:40.412Z,3.54
2019-02-25T17:44:11.861Z,3.40
2019-02-25T17:46:43.450Z,3.39
2019-02-25T17:49:14.507Z,3.46
2019-02-25T17:51:45.504Z,3.39
2019-02-25T17:54:16.854Z,3.43
2019-02-25T17:56:47.966Z,3.41
2019-02-25T17:59:21.360Z,3.44
2019-02-25T18:02:12.966Z,3.51
2019-02-25T18:04:43.086Z,3.49
2019-02-25T18:07:13.310Z,3.43
2019-02-25T18:09:48.310Z,3.41
2019-02-25T18:12:19.084Z,3.35
2019-02-25T18:14:49.494Z,3.32
2019-02-25T18:17:21.629Z,3.24
2019-02-25T18:19:52.426Z,3.19
2019-02-25T18:22:23.991Z,3.22
2019-02-25T18:24:54.222Z,3.26
2019-02-25T18:27:25.087Z,3.35
2019-02-25T18:29:57.029Z,3.26
2019-02-25T18:32:30.334Z,3.14
2019-02-25T18:35:00.600Z,3.09
2019-02-25T18:37:31.702Z,3.11
2019-02-25T18:40:01.751Z,3.13
2019-02-25T18:42:34.254Z,3.07
2019-02-25T18:45:05.070Z,3.03
2019-02-25T18:47:35.750Z,3.00
2019-02-25T18:50:07.765Z,3.00
2019-02-25T18:52:38.557Z,3.03
2019-02-25T18:55:12.031Z,3.00
2019-02-25T18:57:43.895Z,3.00
2019-02-25T19:00:22.212Z,3.00
2019-02-25T19:02:54.049Z,2.95
2019-02-25T19:05:27.219Z,2.88
2019-02-25T19:07:57.758Z,2.84
2019-02-25T19:10:27.901Z,2.95
2019-02-25T19:12:59.128Z,3.04
2019-02-25T19:15:30.489Z,3.06
2019-02-25T19:18:00.661Z,3.07
2019-02-25T19:20:31.076Z,3.05
2019-02-25T19:23:02.781Z,3.03
2019-02-25T19:25:33.229Z,3.09
2019-02-25T19:28:03.571Z,3.13
2019-02-25T19:30:34.506Z,3.09
2019-02-25T19:33:10.867Z,3.07
2019-02-25T19:35:39.015Z,3.10
2019-02-25T19:38:10.369Z,3.11
2019-02-25T19:40:43.065Z,3.21
2019-02-25T19:43:13.350Z,3.31
2019-02-25T19:45:45.472Z,3.35
2019-02-25T19:48:15.904Z,3.34
2019-02-25T19:50:51.215Z,3.19
2019-02-25T19:53:20.277Z,3.07
2019-02-25T19:55:53.677Z,3.12
2019-02-25T19:58:24.478Z,3.14
2019-02-25T20:01:00.773Z,3.12
2019-02-25T20:03:28.943Z,3.06
2019-02-25T20:06:00.605Z,3.06
2019-02-25T20:08:31.059Z,3.03
2019-02-25T20:11:01.276Z,3.01
2019-02-25T20:13:31.610Z,3.06
2019-02-25T20:16:07.949Z,3.06
2019-02-25T20:18:35.427Z,3.03
2019-02-25T20:21:06.454Z,3.06
2019-02-25T20:23:37.247Z,3.02
2019-02-25T20:26:09.458Z,2.90
2019-02-25T20:28:41.155Z,2.91
2019-02-25T20:31:12.731Z,2.88
2019-02-25T20:33:43.408Z,2.87
2019-02-25T20:36:17.203Z,2.86
2019-02-25T20:38:45.545Z,2.91
2019-02-25T20:41:18.010Z,2.91
2019-02-25T20:43:53.227Z,2.92
2019-02-25T20:46:23.925Z,2.88
2019-02-25T20:48:53.148Z,2.87
2019-02-25T20:51:25.056Z,2.85
2019-02-25T20:53:57.168Z,2.86
2019-02-25T20:56:28.863Z,2.77
2019-02-25T20:59:01.053Z,2.80
2019-02-25T21:01:35.238Z,2.78
2019-02-25T21:04:03.457Z,2.78
2019-02-25T21:06:35.312Z,2.83
2019-02-25T21:09:06.670Z,2.84
2019-02-25T21:11:37.908Z,2.85
2019-02-25T21:14:07.922Z,2.79
2019-02-25T21:16:38.057Z,2.88
2019-02-25T21:19:10.252Z,2.90
2019-02-25T21:21:40.024Z,2.92
2019-02-25T21:24:11.872Z,2.91
2019-02-25T21:26:42.366Z,2.95
2019-02-25T21:29:12.710Z,2.93
2019-02-25T21:31:45.319Z,2.92
2019-02-25T21:34:17.752Z,2.96
2019-02-25T21:36:46.592Z,3.04
2019-02-25T21:39:17.474Z,3.02
2019-02-25T21:41:48.684Z,2.97
2019-02-25T21:44:21.273Z,2.89
2019-02-25T21:46:53.789Z,2.92
2019-02-25T21:49:26.982Z,3.02
2019-02-25T21:51:55.197Z,2.97
2019-02-25T21:54:25.190Z,2.96
2019-02-25T21:56:55.232Z,2.96
2019-02-25T21:59:25.276Z,2.92
2019-02-25T22:01:57.386Z,2.96
2019-02-25T22:04:27.887Z,2.97
2019-02-25T22:06:58.524Z,3.01
2019-02-25T22:09:36.431Z,3.03
2019-02-25T22:12:02.035Z,3.03
2019-02-25T22:14:32.060Z,3.06
2019-02-25T22:17:02.373Z,3.03
2019-02-25T22:19:35.031Z,3.09
2019-02-25T22:22:04.939Z,3.03
2019-02-25T22:24:38.192Z,2.99
2019-02-25T22:27:08.247Z,3.03
2019-02-25T22:29:38.634Z,2.99
2019-02-25T22:32:10.977Z,2.92
2019-02-25T22:34:41.191Z,2.91
2019-02-25T22:37:14.769Z,2.92
2019-02-25T22:39:43.940Z,2.87
2019-02-25T22:42:14.413Z,2.94
2019-02-25T22:44:45.205Z,2.91
2019-02-25T22:47:18.256Z,2.88
2019-02-25T22:49:48.726Z,2.90
2019-02-25T22:52:21.837Z,2.87
2019-02-25T22:54:52.216Z,2.92
2019-02-25T22:57:25.221Z,2.98
2019-02-25T22:59:55.376Z,2.93
2019-02-25T23:02:28.066Z,2.97
2019-02-25T23:04:58.128Z,2.96
2019-02-25T23:07:28.536Z,2.97
2019-02-25T23:09:58.774Z,3.05
2019-02-25T23:12:31.023Z,3.07
2019-02-25T23:15:03.861Z,3.16
2019-02-25T23:17:37.117Z,3.03
2019-02-25T23:20:07.730Z,2.99
2019-02-25T23:22:39.138Z,2.96
2019-02-25T23:25:09.561Z,3.01
2019-02-25T23:27:39.845Z,3.05
2019-02-25T23:30:10.092Z,3.04
2019-02-25T23:32:40.238Z,2.98
2019-02-25T23:35:13.622Z,3.02
2019-02-25T23:37:45.113Z,3.05
2019-02-25T23:40:16.801Z,3.07
2019-02-25T23:42:49.130Z,3.03
2019-02-25T23:45:21.081Z,2.99
2019-02-25T23:47:55.339Z,2.97
2019-02-25T23:50:25.685Z,2.85
2019-02-25T23:52:55.856Z,2.80
2019-02-25T23:55:27.777Z,2.73
2019-02-25T23:57:57.908Z,2.78
